createdAt,value
2018-08-28T00:01:48.659Z,19.21
2018-08-28T00:04:17.181Z,19.20
2018-08-28T00:06:45.671Z,19.16
2018-08-28T00:09:14.279Z,19.15
2018-08-28T00:11:42.674Z,19.12
2018-08-28T00:14:11.051Z,19.08
2018-08-28T00:16:39.403Z,19.05
2018-08-28T00:19:07.873Z,19.03
2018-08-28T00:21:36.319Z,19.02
2018-08-28T00:24:04.729Z,19.02
2018-08-28T00:26:33.237Z,18.99
2018-08-28T00:29:01.734Z,18.98
2018-08-28T00:31:30.141Z,19.00
2018-08-28T00:33:58.538Z,19.00
2018-08-28T00:36:26.959Z,19.03
2018-08-28T00:38:55.373Z,19.04
2018-08-28T00:41:23.735Z,19.02
2018-08-28T00:43:52.133Z,18.97
2018-08-28T00:46:20.592Z,18.97
2018-08-28T00:48:49.159Z,18.98
2018-08-28T00:51:17.563Z,18.95
2018-08-28T00:53:46.025Z,18.92
2018-08-28T00:56:14.401Z,18.89
2018-08-28T00:58:42.925Z,18.90
2018-08-28T01:01:11.287Z,18.85
2018-08-28T01:03:39.736Z,18.83
2018-08-28T01:06:08.248Z,18.83
2018-08-28T01:08:36.835Z,18.83
2018-08-28T01:11:05.559Z,18.81
2018-08-28T01:13:33.967Z,18.80
2018-08-28T01:16:02.985Z,18.81
2018-08-28T01:18:31.547Z,18.84
2018-08-28T01:21:01.072Z,18.86
2018-08-28T01:23:29.663Z,18.94
2018-08-28T01:25:58.597Z,18.91
2018-08-28T01:28:27.521Z,18.88
2018-08-28T01:30:56.189Z,18.85
2018-08-28T01:33:24.841Z,18.85
2018-08-28T01:35:53.621Z,18.85
2018-08-28T01:38:22.303Z,18.84
2018-08-28T01:40:50.930Z,18.85
2018-08-28T01:43:24.657Z,18.86
2018-08-28T01:45:54.886Z,18.89
2018-08-28T01:48:23.681Z,18.90
2018-08-28T01:50:52.544Z,18.80
2018-08-28T01:53:21.381Z,18.71
2018-08-28T01:55:50.338Z,18.73
2018-08-28T01:58:19.235Z,18.77
2018-08-28T02:00:48.078Z,18.81
2018-08-28T02:03:17.409Z,18.68
2018-08-28T02:05:46.287Z,18.60
2018-08-28T02:08:15.707Z,18.56
2018-08-28T02:10:46.054Z,18.58
2018-08-28T02:13:14.810Z,18.65
2018-08-28T02:15:43.497Z,18.69
2018-08-28T02:18:12.346Z,18.68
2018-08-28T02:20:41.384Z,18.71
2018-08-28T02:23:10.133Z,18.78
2018-08-28T02:25:39.006Z,18.81
2018-08-28T02:28:07.808Z,18.68
2018-08-28T02:33:17.937Z,18.65
2018-08-28T02:35:48.247Z,18.53
2018-08-28T02:38:17.345Z,18.46
2018-08-28T02:40:46.389Z,18.43
2018-08-28T02:43:15.195Z,18.39
2018-08-28T02:45:43.865Z,18.44
2018-08-28T02:48:13.767Z,18.55
2018-08-28T02:50:42.693Z,18.58
2018-08-28T02:53:11.478Z,18.64
2018-08-28T02:55:40.247Z,18.69
2018-08-28T02:58:09.112Z,18.74
2018-08-28T03:00:37.923Z,18.79
2018-08-28T03:03:06.761Z,18.74
2018-08-28T03:05:36.083Z,18.72
2018-08-28T03:08:04.808Z,18.70
2018-08-28T03:10:34.991Z,18.70
2018-08-28T03:13:03.677Z,18.78
2018-08-28T03:15:32.284Z,18.82
2018-08-28T03:18:00.967Z,18.82
2018-08-28T03:20:29.601Z,18.80
2018-08-28T03:22:58.293Z,18.83
2018-08-28T03:25:26.898Z,18.87
2018-08-28T03:27:55.495Z,18.90
2018-08-28T03:30:24.477Z,18.87
2018-08-28T03:32:53.780Z,18.82
2018-08-28T03:35:23.042Z,18.80
2018-08-28T03:37:53.585Z,18.85
2018-08-28T03:40:22.327Z,18.87
2018-08-28T03:42:50.924Z,18.86
2018-08-28T03:45:19.703Z,18.87
2018-08-28T03:47:48.405Z,18.85
2018-08-28T03:50:17.051Z,18.81
2018-08-28T03:52:45.658Z,18.75
2018-08-28T03:55:14.347Z,18.72
2018-08-28T03:57:43.023Z,18.72
2018-08-28T04:00:12.235Z,18.72
2018-08-28T04:02:40.948Z,18.77
2018-08-28T04:05:10.228Z,18.79
2018-08-28T04:07:38.970Z,18.82
2018-08-28T04:10:07.663Z,18.79
2018-08-28T04:12:36.387Z,18.77
2018-08-28T04:15:06.239Z,18.73
2018-08-28T04:17:39.277Z,18.74
2018-08-28T04:20:08.220Z,18.76
2018-08-28T04:22:36.958Z,18.71
2018-08-28T04:25:05.896Z,18.65
2018-08-28T04:27:34.597Z,18.66
2018-08-28T04:30:03.392Z,18.71
2018-08-28T04:32:46.751Z,18.73
2018-08-28T04:35:15.220Z,18.71
2018-08-28T04:37:43.661Z,18.69
2018-08-28T04:40:12.150Z,18.66
2018-08-28T04:42:40.605Z,18.65
2018-08-28T04:45:09.156Z,18.62
2018-08-28T04:47:37.667Z,18.64
2018-08-28T04:50:06.518Z,18.66
2018-08-28T04:52:35.078Z,18.65
2018-08-28T04:55:03.701Z,18.68
2018-08-28T04:57:32.058Z,18.72
2018-08-28T05:00:00.488Z,18.67
2018-08-28T05:02:33.124Z,18.71
2018-08-28T05:05:01.630Z,18.74
2018-08-28T05:07:30.281Z,18.77
2018-08-28T05:09:58.708Z,18.77
2018-08-28T05:12:27.161Z,18.79
2018-08-28T05:14:55.568Z,18.78
2018-08-28T05:17:24.175Z,18.77
2018-08-28T05:19:53.012Z,18.68
2018-08-28T05:22:21.757Z,18.64
2018-08-28T05:24:50.356Z,18.70
2018-08-28T05:27:18.929Z,18.74
2018-08-28T05:29:47.495Z,18.78
2018-08-28T05:32:15.954Z,18.70
2018-08-28T05:34:44.581Z,18.69
2018-08-28T05:37:13.264Z,18.69
2018-08-28T05:39:41.830Z,18.67
2018-08-28T05:42:10.377Z,18.62
2018-08-28T05:44:38.776Z,18.60
2018-08-28T05:47:07.331Z,18.66
2018-08-28T05:49:35.914Z,18.64
2018-08-28T05:52:04.290Z,18.65
2018-08-28T05:54:32.710Z,18.67
2018-08-28T05:57:01.150Z,18.66
2018-08-28T05:59:29.517Z,18.68
2018-08-28T06:01:57.982Z,18.71
2018-08-28T06:04:26.378Z,18.75
2018-08-28T06:06:54.872Z,18.76
2018-08-28T06:09:23.427Z,18.74
2018-08-28T06:11:51.857Z,18.75
2018-08-28T06:14:20.403Z,18.71
2018-08-28T06:16:48.951Z,18.66
2018-08-28T06:19:17.521Z,18.63
2018-08-28T06:21:45.937Z,18.69
2018-08-28T06:24:14.368Z,18.67
2018-08-28T06:26:42.893Z,18.67
2018-08-28T06:29:11.510Z,18.61
2018-08-28T06:31:39.928Z,18.60
2018-08-28T06:34:08.419Z,18.59
2018-08-28T06:36:36.904Z,18.60
2018-08-28T06:39:07.515Z,18.55
2018-08-28T06:41:35.940Z,18.53
2018-08-28T06:44:04.359Z,18.51
2018-08-28T06:46:32.858Z,18.53
2018-08-28T06:49:01.296Z,18.61
2018-08-28T06:51:29.820Z,18.67
2018-08-28T06:53:58.325Z,18.72
2018-08-28T06:56:26.726Z,18.69
2018-08-28T06:58:55.245Z,18.71
2018-08-28T07:01:23.710Z,18.71
2018-08-28T07:03:52.113Z,18.75
2018-08-28T07:06:20.586Z,18.88
2018-08-28T07:08:49.128Z,18.95
2018-08-28T07:11:17.597Z,19.00
2018-08-28T07:13:46.296Z,19.08
2018-08-28T07:16:14.741Z,19.15
2018-08-28T07:18:43.217Z,19.15
2018-08-28T07:21:11.618Z,19.16
2018-08-28T07:23:40.080Z,19.23
2018-08-28T07:26:08.504Z,19.23
2018-08-28T07:28:36.993Z,19.26
2018-08-28T07:31:05.394Z,19.32
2018-08-28T07:33:33.816Z,19.32
2018-08-28T07:36:02.214Z,19.38
2018-08-28T07:38:30.776Z,19.40
2018-08-28T07:40:59.351Z,19.35
2018-08-28T07:43:27.838Z,19.40
2018-08-28T07:45:56.420Z,19.42
2018-08-28T07:48:25.022Z,19.49
2018-08-28T07:50:53.592Z,19.53
2018-08-28T07:53:21.958Z,19.56
2018-08-28T07:55:50.454Z,19.63
2018-08-28T07:58:19.118Z,19.66
2018-08-28T08:00:47.838Z,19.68
2018-08-28T08:03:20.361Z,19.76
2018-08-28T08:05:48.960Z,19.80
2018-08-28T08:08:17.522Z,19.88
2018-08-28T08:10:46.010Z,19.73
2018-08-28T08:13:14.441Z,19.76
2018-08-28T08:15:42.904Z,19.80
2018-08-28T08:18:11.326Z,19.79
2018-08-28T08:20:39.976Z,19.71
2018-08-28T08:23:08.522Z,19.70
2018-08-28T08:25:36.958Z,19.77
2018-08-28T08:28:05.476Z,19.82
2018-08-28T08:30:33.962Z,19.86
2018-08-28T08:33:02.456Z,19.97
2018-08-28T08:35:30.972Z,20.05
2018-08-28T08:37:59.503Z,20.05
2018-08-28T08:40:27.938Z,20.06
2018-08-28T08:42:56.390Z,20.08
2018-08-28T08:45:24.830Z,20.14
2018-08-28T08:47:53.353Z,20.18
2018-08-28T08:50:21.960Z,20.27
2018-08-28T08:52:50.690Z,20.41
2018-08-28T08:55:19.163Z,20.54
2018-08-28T08:57:47.743Z,20.59
2018-08-28T09:00:16.272Z,20.63
2018-08-28T09:02:44.860Z,20.69
2018-08-28T09:05:14.250Z,20.74
2018-08-28T09:07:42.961Z,20.62
2018-08-28T09:10:12.446Z,20.52
2018-08-28T09:12:41.021Z,20.34
2018-08-28T09:15:09.469Z,20.29
2018-08-28T09:17:37.891Z,20.41
2018-08-28T09:20:06.372Z,20.55
2018-08-28T09:22:35.124Z,20.71
2018-08-28T09:25:04.325Z,20.79
2018-08-28T09:27:32.826Z,20.75
2018-08-28T09:30:01.422Z,20.64
2018-08-28T09:32:29.977Z,20.54
2018-08-28T09:35:02.852Z,20.56
2018-08-28T09:37:31.247Z,20.61
2018-08-28T09:40:00.152Z,20.61
2018-08-28T09:42:28.605Z,20.59
2018-08-28T09:44:57.494Z,20.59
2018-08-28T09:47:25.955Z,20.67
2018-08-28T09:49:54.855Z,20.70
2018-08-28T09:52:23.317Z,20.72
2018-08-28T09:54:51.990Z,20.71
2018-08-28T10:00:04.226Z,20.68
2018-08-28T10:02:33.330Z,20.76
2018-08-28T10:05:02.570Z,20.82
2018-08-28T10:07:31.085Z,20.85
2018-08-28T10:10:13.255Z,20.90
2018-08-28T10:12:42.048Z,21.00
2018-08-28T10:15:10.698Z,21.14
2018-08-28T10:17:39.855Z,21.24
2018-08-28T10:20:08.420Z,21.32
2018-08-28T10:22:36.974Z,21.43
2018-08-28T10:25:05.581Z,21.54
2018-08-28T10:27:34.201Z,21.63
2018-08-28T10:30:03.052Z,21.72
2018-08-28T10:32:31.736Z,21.82
2018-08-28T10:35:00.554Z,22.07
2018-08-28T10:37:29.868Z,22.35
2018-08-28T10:39:58.380Z,22.73
2018-08-28T10:42:26.795Z,23.02
2018-08-28T10:44:55.582Z,22.94
2018-08-28T10:47:24.284Z,22.83
2018-08-28T10:49:53.066Z,22.72
2018-08-28T10:52:21.536Z,22.64
2018-08-28T10:54:52.268Z,22.59
2018-08-28T10:57:21.711Z,22.69
2018-08-28T10:59:50.791Z,22.80
2018-08-28T11:02:21.159Z,22.87
2018-08-28T11:04:50.660Z,22.99
2018-08-28T11:07:19.581Z,23.40
2018-08-28T11:09:48.329Z,23.58
2018-08-28T11:12:17.335Z,23.49
2018-08-28T11:14:46.220Z,23.25
2018-08-28T11:17:15.245Z,23.36
2018-08-28T11:19:43.743Z,23.40
2018-08-28T11:22:12.318Z,23.44
2018-08-28T11:24:41.123Z,23.34
2018-08-28T11:27:09.835Z,23.15
2018-08-28T11:29:38.478Z,23.35
2018-08-28T11:32:07.190Z,23.49
2018-08-28T11:34:35.749Z,24.01
2018-08-28T11:37:04.496Z,24.34
2018-08-28T11:39:33.309Z,24.39
2018-08-28T11:42:02.247Z,24.40
2018-08-28T11:44:30.988Z,24.14
2018-08-28T11:46:59.845Z,24.03
2018-08-28T11:49:29.709Z,23.94
2018-08-28T11:51:59.769Z,23.71
2018-08-28T11:54:29.586Z,24.08
2018-08-28T11:56:58.410Z,24.84
2018-08-28T11:59:27.080Z,25.48
2018-08-28T12:01:55.782Z,26.15
2018-08-28T12:04:26.119Z,25.79
2018-08-28T12:06:55.458Z,25.56
2018-08-28T12:09:24.642Z,25.41
2018-08-28T12:11:54.422Z,24.76
2018-08-28T12:14:27.513Z,24.22
2018-08-28T12:16:56.183Z,24.37
2018-08-28T12:19:24.746Z,25.15
2018-08-28T12:21:53.125Z,25.93
2018-08-28T12:24:22.424Z,26.31
2018-08-28T12:26:51.060Z,26.70
2018-08-28T12:29:19.400Z,27.02
2018-08-28T12:31:47.856Z,27.23
2018-08-28T12:34:16.350Z,27.36
2018-08-28T12:36:44.875Z,27.35
2018-08-28T12:39:14.112Z,27.40
2018-08-28T12:41:42.668Z,27.17
2018-08-28T12:44:11.431Z,27.00
2018-08-28T12:46:39.690Z,27.09
2018-08-28T12:49:08.315Z,26.52
2018-08-28T12:51:36.800Z,26.04
2018-08-28T12:54:05.382Z,25.58
2018-08-28T12:56:33.917Z,25.37
2018-08-28T12:59:02.401Z,25.55
2018-08-28T13:01:30.928Z,25.95
2018-08-28T13:04:00.293Z,26.51
2018-08-28T13:06:29.289Z,26.92
2018-08-28T13:08:58.063Z,27.33
2018-08-28T13:11:27.150Z,27.69
2018-08-28T13:13:55.713Z,28.24
2018-08-28T13:16:25.235Z,28.10
2018-08-28T13:18:54.664Z,28.14
2018-08-28T13:21:23.229Z,28.14
2018-08-28T13:23:53.383Z,28.02
2018-08-28T13:26:21.884Z,28.12
2018-08-28T13:28:50.413Z,27.93
2018-08-28T13:31:18.890Z,27.83
2018-08-28T13:33:47.259Z,27.63
2018-08-28T13:36:15.747Z,27.34
2018-08-28T13:38:44.186Z,27.25
2018-08-28T13:41:12.643Z,26.89
2018-08-28T13:43:41.187Z,26.89
2018-08-28T13:46:11.049Z,26.89
2018-08-28T13:48:44.575Z,26.62
2018-08-28T13:51:17.537Z,26.60
2018-08-28T13:53:46.475Z,26.73
2018-08-28T13:56:14.913Z,26.70
2018-08-28T13:58:43.617Z,26.65
2018-08-28T14:01:12.037Z,26.81
2018-08-28T14:03:40.441Z,26.95
2018-08-28T14:06:08.878Z,26.87
2018-08-28T14:08:37.557Z,26.84
2018-08-28T14:11:06.126Z,26.75
2018-08-28T14:13:34.637Z,26.58
2018-08-28T14:16:03.053Z,26.50
2018-08-28T14:18:32.137Z,26.44
2018-08-28T14:21:00.604Z,26.23
2018-08-28T14:23:29.085Z,25.90
2018-08-28T14:25:57.608Z,25.95
2018-08-28T14:28:26.177Z,26.05
2018-08-28T14:30:54.907Z,26.16
2018-08-28T14:33:23.378Z,26.11
2018-08-28T14:35:51.882Z,26.03
2018-08-28T14:38:20.629Z,25.97
2018-08-28T14:40:49.150Z,25.88
2018-08-28T14:43:17.541Z,25.72
2018-08-28T14:45:45.969Z,25.61
2018-08-28T14:48:14.526Z,25.50
2018-08-28T14:50:43.155Z,25.38
2018-08-28T14:53:11.941Z,25.25
2018-08-28T14:55:55.145Z,25.24
2018-08-28T14:58:23.629Z,25.23
2018-08-28T15:00:52.105Z,25.12
2018-08-28T15:03:20.580Z,25.00
2018-08-28T15:05:49.219Z,24.91
2018-08-28T15:08:17.608Z,24.85
2018-08-28T15:10:46.006Z,24.80
2018-08-28T15:13:14.964Z,24.64
2018-08-28T15:15:43.460Z,24.57
2018-08-28T15:18:12.086Z,24.52
2018-08-28T15:20:40.616Z,24.49
2018-08-28T15:23:09.305Z,24.45
2018-08-28T15:25:37.807Z,24.41
2018-08-28T15:28:06.475Z,24.38
2018-08-28T15:30:35.089Z,24.34
2018-08-28T15:33:03.713Z,24.31
2018-08-28T15:35:32.215Z,24.30
2018-08-28T15:38:00.756Z,24.32
2018-08-28T15:40:29.243Z,24.26
2018-08-28T15:42:57.834Z,24.18
2018-08-28T15:45:26.349Z,24.14
2018-08-28T15:47:54.803Z,24.14
2018-08-28T15:50:23.420Z,24.19
2018-08-28T15:52:51.967Z,24.22
2018-08-28T15:55:20.436Z,24.23
2018-08-28T15:57:48.963Z,24.21
2018-08-28T16:00:18.497Z,24.16
2018-08-28T16:02:47.331Z,24.15
2018-08-28T16:05:16.122Z,24.18
2018-08-28T16:07:45.419Z,24.21
2018-08-28T16:10:14.193Z,24.16
2018-08-28T16:12:43.213Z,24.13
2018-08-28T16:15:11.712Z,24.08
2018-08-28T16:17:40.213Z,24.02
2018-08-28T16:20:08.851Z,24.01
2018-08-28T16:22:43.247Z,23.97
2018-08-28T16:25:11.753Z,23.98
2018-08-28T16:27:40.589Z,23.94
2018-08-28T16:30:09.377Z,23.97
2018-08-28T16:32:37.840Z,23.95
2018-08-28T16:35:06.631Z,23.90
2018-08-28T16:37:35.178Z,23.90
2018-08-28T16:40:05.415Z,23.88
2018-08-28T16:42:34.259Z,23.86
2018-08-28T16:45:02.951Z,23.87
2018-08-28T16:47:31.797Z,23.88
2018-08-28T16:50:00.449Z,23.88
2018-08-28T16:52:28.965Z,23.85
2018-08-28T16:54:57.790Z,23.82
2018-08-28T16:57:26.631Z,23.80
2018-08-28T16:59:55.585Z,23.75
2018-08-28T17:02:24.263Z,23.73
2018-08-28T17:04:53.710Z,23.71
2018-08-28T17:07:22.962Z,23.73
2018-08-28T17:09:53.399Z,23.72
2018-08-28T17:12:24.868Z,23.72
2018-08-28T17:14:53.841Z,23.71
2018-08-28T17:17:23.648Z,23.65
2018-08-28T17:19:53.407Z,23.61
2018-08-28T17:22:22.139Z,23.61
2018-08-28T17:24:50.925Z,23.61
2018-08-28T17:27:19.775Z,23.58
2018-08-28T17:32:32.426Z,23.58
2018-08-28T17:35:01.115Z,23.56
2018-08-28T17:37:29.954Z,23.53
2018-08-28T17:39:58.407Z,23.51
2018-08-28T17:42:26.956Z,23.47
2018-08-28T17:44:55.388Z,23.41
2018-08-28T17:47:24.523Z,23.41
2018-08-28T17:49:55.764Z,23.37
2018-08-28T17:52:24.176Z,23.32
2018-08-28T17:54:52.780Z,23.23
2018-08-28T17:57:21.718Z,23.20
2018-08-28T17:59:50.257Z,23.15
2018-08-28T18:02:18.823Z,23.11
2018-08-28T18:04:47.398Z,23.07
2018-08-28T18:07:15.901Z,23.12
2018-08-28T18:09:44.889Z,23.14
2018-08-28T18:12:13.486Z,23.15
2018-08-28T18:14:42.000Z,23.11
2018-08-28T18:17:10.734Z,23.08
2018-08-28T18:19:39.443Z,23.10
2018-08-28T18:22:08.010Z,23.09
2018-08-28T18:24:36.586Z,23.08
2018-08-28T18:27:05.632Z,23.09
2018-08-28T18:29:39.357Z,23.11
2018-08-28T18:32:08.469Z,23.05
2018-08-28T18:34:37.317Z,23.05
2018-08-28T18:37:07.845Z,22.99
2018-08-28T18:39:37.079Z,22.85
2018-08-28T18:42:06.181Z,22.85
2018-08-28T18:44:35.912Z,22.82
2018-08-28T18:47:04.831Z,22.74
2018-08-28T18:49:33.666Z,22.66
2018-08-28T18:52:02.284Z,22.63
2018-08-28T18:54:31.248Z,22.60
2018-08-28T18:57:00.527Z,22.59
2018-08-28T18:59:33.229Z,22.53
2018-08-28T19:02:02.196Z,22.56
2018-08-28T19:04:30.830Z,22.59
2018-08-28T19:07:00.141Z,22.62
2018-08-28T19:09:29.621Z,22.66
2018-08-28T19:11:59.205Z,22.65
2018-08-28T19:14:30.231Z,22.69
2018-08-28T19:16:58.978Z,22.67
2018-08-28T19:19:28.158Z,22.66
2018-08-28T19:21:56.968Z,22.63
2018-08-28T19:24:25.808Z,22.54
2018-08-28T19:26:54.525Z,22.46
2018-08-28T19:29:23.203Z,22.35
2018-08-28T19:31:51.990Z,22.30
2018-08-28T19:34:20.531Z,22.32
2018-08-28T19:36:48.956Z,22.35
2018-08-28T19:39:17.879Z,22.31
2018-08-28T19:41:46.685Z,22.30
2018-08-28T19:44:15.427Z,22.25
2018-08-28T19:46:44.140Z,22.17
2018-08-28T19:49:13.033Z,22.15
2018-08-28T19:51:41.762Z,22.08
2018-08-28T19:54:10.348Z,22.09
2018-08-28T19:56:39.032Z,22.03
2018-08-28T19:59:07.592Z,22.02
2018-08-28T20:01:36.511Z,21.98
2018-08-28T20:04:05.379Z,21.95
2018-08-28T20:06:33.787Z,21.91
2018-08-28T20:09:02.349Z,21.84
2018-08-28T20:11:31.282Z,21.82
2018-08-28T20:13:59.829Z,21.80
2018-08-28T20:16:28.402Z,21.79
2018-08-28T20:18:56.935Z,21.78
2018-08-28T20:21:25.657Z,21.75
2018-08-28T20:23:54.185Z,21.72
2018-08-28T20:26:23.104Z,21.67
2018-08-28T20:28:52.337Z,21.64
2018-08-28T20:31:21.182Z,21.63
2018-08-28T20:33:49.718Z,21.67
2018-08-28T20:36:18.121Z,21.73
2018-08-28T20:38:46.784Z,21.72
2018-08-28T20:41:15.343Z,21.65
2018-08-28T20:43:43.912Z,21.59
2018-08-28T20:46:12.349Z,21.51
2018-08-28T20:48:40.912Z,21.47
2018-08-28T20:51:09.355Z,21.50
2018-08-28T20:53:37.867Z,21.49
2018-08-28T20:56:06.432Z,21.49
2018-08-28T20:58:35.247Z,21.47
2018-08-28T21:01:03.691Z,21.35
2018-08-28T21:03:32.190Z,21.34
2018-08-28T21:06:00.623Z,21.41
2018-08-28T21:08:29.901Z,21.44
2018-08-28T21:10:58.352Z,21.44
2018-08-28T21:13:26.899Z,21.40
2018-08-28T21:15:55.489Z,21.32
2018-08-28T21:18:24.275Z,21.24
2018-08-28T21:20:52.860Z,21.16
2018-08-28T21:23:21.376Z,21.07
2018-08-28T21:25:49.818Z,21.09
2018-08-28T21:28:18.287Z,21.04
2018-08-28T21:30:46.708Z,21.02
2018-08-28T21:33:15.144Z,20.98
2018-08-28T21:35:43.611Z,20.98
2018-08-28T21:38:12.177Z,20.97
2018-08-28T21:40:40.658Z,20.92
2018-08-28T21:43:09.152Z,20.87
2018-08-28T21:45:37.540Z,20.91
2018-08-28T21:48:06.171Z,20.89
2018-08-28T21:50:34.604Z,20.90
2018-08-28T21:53:03.110Z,20.90
2018-08-28T21:55:31.513Z,20.87
2018-08-28T21:58:00.535Z,20.86
2018-08-28T22:00:29.128Z,20.82
2018-08-28T22:02:57.702Z,20.79
2018-08-28T22:05:31.043Z,20.76
2018-08-28T22:08:03.008Z,20.76
2018-08-28T22:10:32.105Z,20.74
2018-08-28T22:13:00.626Z,20.67
2018-08-28T22:15:29.167Z,20.64
2018-08-28T22:17:57.712Z,20.62
2018-08-28T22:20:26.230Z,20.59
2018-08-28T22:22:54.676Z,20.57
2018-08-28T22:25:23.185Z,20.51
2018-08-28T22:27:51.576Z,20.49
2018-08-28T22:30:20.263Z,20.47
2018-08-28T22:32:48.758Z,20.48
2018-08-28T22:35:17.252Z,20.47
2018-08-28T22:37:46.067Z,20.49
2018-08-28T22:40:14.514Z,20.49
2018-08-28T22:42:42.990Z,20.48
2018-08-28T22:45:11.505Z,20.45
2018-08-28T22:47:39.958Z,20.42
2018-08-28T22:50:08.542Z,20.41
2018-08-28T22:52:38.578Z,20.38
2018-08-28T22:55:07.219Z,20.37
2018-08-28T22:57:36.486Z,20.36
2018-08-28T23:00:06.869Z,20.38
2018-08-28T23:02:35.512Z,20.34
2018-08-28T23:05:04.148Z,20.26
2018-08-28T23:07:32.944Z,20.14
2018-08-28T23:10:01.617Z,20.13
2018-08-28T23:12:30.370Z,20.14
2018-08-28T23:14:58.998Z,20.14
2018-08-28T23:17:27.599Z,20.10
2018-08-28T23:19:56.437Z,20.13
2018-08-28T23:22:25.125Z,20.15
2018-08-28T23:24:53.804Z,20.12
2018-08-28T23:27:23.088Z,20.12
2018-08-28T23:29:52.073Z,20.12
2018-08-28T23:32:20.722Z,20.13
2018-08-28T23:34:49.372Z,20.09
2018-08-28T23:37:18.012Z,20.02
2018-08-28T23:39:46.797Z,19.91
2018-08-28T23:42:15.370Z,19.85
2018-08-28T23:44:44.058Z,19.83
2018-08-28T23:47:12.782Z,19.82
2018-08-28T23:49:41.464Z,19.82
2018-08-28T23:52:10.219Z,19.84
2018-08-28T23:54:38.868Z,19.76
2018-08-28T23:57:07.561Z,19.72
2018-08-28T23:59:36.268Z,19.68
